Time;durP1;ratioP1;P1;durP2;ratioP2;P2;SDS_P1;SDS_P2;PMS_P1;PMS_P2;Temp;Humidity;BMP_temperature;BMP_pressure;BME280_temperature;BME280_humidity;BME280_pressure;Samples;Min_cycle;Max_cycle;Signal;HPM_P1;HPM_P2
2022/07/11 00:01:02;;;;;;;;;2.50;2.50;;;;;;;;4951678;28;8818;-77
2022/07/11 00:03:30;;;;;;;;;2.25;2.25;;;;;;;;4953250;28;8905;-79
2022/07/11 00:05:57;;;;;;;;;2.75;2.75;;;;;;;;4952536;28;8907;-79
2022/07/11 00:08:26;;;;;;;;;3.00;3.00;;;;;;;;4962246;28;9004;-78
2022/07/11 00:10:54;;;;;;;;;3.00;3.00;;;;;;;;4963413;28;8869;-78
2022/07/11 00:13:21;;;;;;;;;3.00;3.00;;;;;;;;4943104;28;8875;-77
2022/07/11 00:15:48;;;;;;;;;3.00;3.00;;;;;;;;4965001;28;8920;-78
2022/07/11 00:18:16;;;;;;;;;3.50;3.50;;;;;;;;4963693;28;8877;-77
2022/07/11 00:20:43;;;;;;;;;3.75;3.75;;;;;;;;4937848;28;8980;-78
2022/07/11 00:23:11;;;;;;;;;3.00;3.00;;;;;;;;4961856;28;8933;-78
2022/07/11 00:25:39;;;;;;;;;3.00;3.00;;;;;;;;4960262;28;8872;-78
2022/07/11 00:28:07;;;;;;;;;3.00;3.00;;;;;;;;4958697;28;8883;-78
2022/07/11 00:30:34;;;;;;;;;3.25;3.25;;;;;;;;4960963;28;8827;-78
2022/07/11 00:33:02;;;;;;;;;6.50;4.25;;;;;;;;4969060;28;9655;-78
2022/07/11 00:35:29;;;;;;;;;2.00;2.00;;;;;;;;4946710;28;8921;-78
2022/07/11 00:37:57;;;;;;;;;3.75;3.75;;;;;;;;4960247;28;8858;-78
2022/07/11 00:40:25;;;;;;;;;3.00;3.00;;;;;;;;4945397;28;8893;-78
2022/07/11 00:42:53;;;;;;;;;1.25;1.25;;;;;;;;4960517;28;8893;-79
2022/07/11 00:45:21;;;;;;;;;3.00;3.00;;;;;;;;4958776;28;8893;-78
2022/07/11 00:47:48;;;;;;;;;4.00;4.00;;;;;;;;4963741;28;8877;-77
2022/07/11 00:50:16;;;;;;;;;4.00;4.00;;;;;;;;4959072;28;8961;-78
2022/07/11 00:52:43;;;;;;;;;5.50;3.75;;;;;;;;4960609;28;8883;-77
2022/07/11 00:55:11;;;;;;;;;4.25;4.25;;;;;;;;4964880;28;8871;-78
2022/07/11 00:57:39;;;;;;;;;4.00;4.00;;;;;;;;4959277;28;8927;-78
2022/07/11 01:00:10;;;;;;;;;3.75;3.00;;;;;;;;4961860;28;8883;-78
2022/07/11 01:02:38;;;;;;;;;3.00;3.00;;;;;;;;4961041;28;8867;-78
2022/07/11 01:05:06;;;;;;;;;4.50;4.50;;;;;;;;4963956;28;8885;-78
2022/07/11 01:07:33;;;;;;;;;6.00;4.00;;;;;;;;4952220;28;9678;-78
2022/07/11 01:10:01;;;;;;;;;5.00;5.00;;;;;;;;4959943;28;8952;-78
2022/07/11 01:12:28;;;;;;;;;4.00;4.00;;;;;;;;4939541;28;8864;-78
2022/07/11 01:14:56;;;;;;;;;3.00;3.00;;;;;;;;4959370;28;8861;-78
2022/07/11 01:17:25;;;;;;;;;3.50;3.50;;;;;;;;4959383;28;9732;-78
2022/07/11 01:19:52;;;;;;;;;3.25;3.25;;;;;;;;4965261;28;8869;-78
2022/07/11 01:22:24;;;;;;;;;5.75;4.25;;;;;;;;4952017;28;8893;-78
2022/07/11 01:24:53;;;;;;;;;3.75;3.75;;;;;;;;4956752;28;8858;-79
2022/07/11 01:27:20;;;;;;;;;3.00;3.00;;;;;;;;4951959;28;8921;-79
2022/07/11 01:29:47;;;;;;;;;7.75;6.00;;;;;;;;4960444;28;8843;-80
2022/07/11 01:32:15;;;;;;;;;4.25;4.25;;;;;;;;4959097;28;8828;-77
2022/07/11 01:34:43;;;;;;;;;3.50;3.50;;;;;;;;4963078;28;8995;-77
2022/07/11 01:37:10;;;;;;;;;4.00;4.00;;;;;;;;4960443;28;8954;-77
2022/07/11 01:39:37;;;;;;;;;4.25;4.00;;;;;;;;4961175;28;8880;-76
2022/07/11 01:42:06;;;;;;;;;8.50;6.00;;;;;;;;4941270;28;8880;-77
2022/07/11 01:44:34;;;;;;;;;5.00;5.00;;;;;;;;4959980;28;8863;-77
2022/07/11 01:47:01;;;;;;;;;4.00;4.00;;;;;;;;4958816;28;8906;-77
2022/07/11 01:49:29;;;;;;;;;5.67;5.67;;;;;;;;4937155;28;8944;-76
2022/07/11 01:51:57;;;;;;;;;4.00;4.00;;;;;;;;4961155;28;8958;-77
2022/07/11 01:54:24;;;;;;;;;5.00;5.00;;;;;;;;4958729;28;8924;-77
2022/07/11 01:56:51;;;;;;;;;4.67;4.67;;;;;;;;4967542;28;8959;-77
2022/07/11 01:59:20;;;;;;;;;7.33;4.00;;;;;;;;4955845;28;8940;-76
2022/07/11 02:01:47;;;;;;;;;5.33;5.33;;;;;;;;4953752;28;8927;-78
2022/07/11 02:04:14;;;;;;;;;2.00;2.00;;;;;;;;4959711;28;8978;-79
2022/07/11 02:06:42;;;;;;;;;4.75;4.75;;;;;;;;4959424;28;9067;-78
2022/07/11 02:09:09;;;;;;;;;3.75;3.75;;;;;;;;4959256;28;8899;-77
2022/07/11 02:11:36;;;;;;;;;3.50;3.50;;;;;;;;4959596;28;8985;-78
2022/07/11 02:14:03;;;;;;;;;5.00;5.00;;;;;;;;4955557;28;8891;-77
2022/07/11 02:16:32;;;;;;;;;3.00;3.00;;;;;;;;4954701;28;8944;-77
2022/07/11 02:18:59;;;;;;;;;3.75;3.75;;;;;;;;4959430;28;8885;-76
2022/07/11 02:21:27;;;;;;;;;4.00;4.00;;;;;;;;4940336;28;8897;-76
2022/07/11 02:23:54;;;;;;;;;2.50;2.50;;;;;;;;4959100;28;8897;-76
2022/07/11 02:26:21;;;;;;;;;4.00;4.00;;;;;;;;4956795;28;9462;-76
2022/07/11 02:28:49;;;;;;;;;4.00;4.00;;;;;;;;4930568;28;8893;-77
2022/07/11 02:31:16;;;;;;;;;3.25;3.25;;;;;;;;4937465;28;8804;-78
2022/07/11 02:33:45;;;;;;;;;3.00;3.00;;;;;;;;4956585;28;8888;-76
2022/07/11 02:36:12;;;;;;;;;3.75;3.75;;;;;;;;4955983;28;8858;-77
2022/07/11 02:38:40;;;;;;;;;5.33;3.00;;;;;;;;4958979;28;8899;-77
2022/07/11 02:41:07;;;;;;;;;3.00;3.00;;;;;;;;4956726;28;9172;-78
2022/07/11 02:43:34;;;;;;;;;5.33;4.67;;;;;;;;4954975;28;8970;-79
2022/07/11 02:46:01;;;;;;;;;3.75;3.75;;;;;;;;4957919;28;8979;-77
2022/07/11 02:48:29;;;;;;;;;4.00;4.00;;;;;;;;4953406;28;9667;-78
2022/07/11 02:50:57;;;;;;;;;5.00;5.00;;;;;;;;4957350;28;8987;-76
2022/07/11 02:53:25;;;;;;;;;5.00;5.00;;;;;;;;4960062;28;8944;-77
2022/07/11 02:55:52;;;;;;;;;4.33;4.33;;;;;;;;4963023;28;8969;-77
2022/07/11 02:58:19;;;;;;;;;5.00;5.00;;;;;;;;4956737;28;8962;-78
2022/07/11 03:00:47;;;;;;;;;2.00;2.00;;;;;;;;4958121;28;9007;-77
2022/07/11 03:03:14;;;;;;;;;5.00;5.00;;;;;;;;4956197;28;8970;-77
2022/07/11 03:05:41;;;;;;;;;7.33;7.33;;;;;;;;4938863;28;9017;-77
2022/07/11 03:08:10;;;;;;;;;4.67;4.67;;;;;;;;4957461;28;8945;-77
2022/07/11 03:10:38;;;;;;;;;3.00;3.00;;;;;;;;4959577;28;9139;-77
2022/07/11 03:13:06;;;;;;;;;5.00;5.00;;;;;;;;4961177;28;9226;-78
2022/07/11 03:15:33;;;;;;;;;6.00;6.00;;;;;;;;4942579;28;9072;-77
2022/07/11 03:18:01;;;;;;;;;4.00;4.00;;;;;;;;4952530;28;9096;-78
2022/07/11 03:20:28;;;;;;;;;5.00;5.00;;;;;;;;4954910;28;9222;-78
2022/07/11 03:22:55;;;;;;;;;5.00;5.00;;;;;;;;4939463;28;8958;-77
2022/07/11 03:25:24;;;;;;;;;4.33;4.33;;;;;;;;4941174;28;9775;-78
2022/07/11 03:27:52;;;;;;;;;9.00;4.67;;;;;;;;4960367;28;9260;-78
2022/07/11 03:30:19;;;;;;;;;5.00;4.00;;;;;;;;4965733;28;9114;-79
2022/07/11 03:32:46;;;;;;;;;4.00;4.00;;;;;;;;4957780;28;9095;-78
2022/07/11 03:37:58;;;;;;;;;3.67;3.33;;;;;;;;4957419;28;9197;-78
2022/07/11 03:40:27;;;;;;;;;3.33;3.33;;;;;;;;4956941;28;9134;-77
2022/07/11 03:42:54;;;;;;;;;1.00;1.00;;;;;;;;4960024;28;9149;-77
2022/07/11 03:45:21;;;;;;;;;4.33;3.00;;;;;;;;4961744;28;8887;-77
2022/07/11 03:47:48;;;;;;;;;5.00;5.00;;;;;;;;4954965;28;9040;-78
2022/07/11 03:50:16;;;;;;;;;4.33;4.00;;;;;;;;4964159;28;9037;-78
2022/07/11 03:52:43;;;;;;;;;3.33;3.33;;;;;;;;4952907;28;9047;-78
2022/07/11 03:55:11;;;;;;;;;4.00;4.00;;;;;;;;4959484;28;9140;-77
2022/07/11 03:57:40;;;;;;;;;3.00;3.00;;;;;;;;4960240;28;9027;-76
2022/07/11 04:00:09;;;;;;;;;4.00;4.00;;;;;;;;4956625;28;9044;-77
2022/07/11 04:02:37;;;;;;;;;3.33;2.33;;;;;;;;4937031;28;9801;-78
2022/07/11 04:05:05;;;;;;;;;3.67;3.67;;;;;;;;4954927;28;9311;-77
2022/07/11 04:07:32;;;;;;;;;2.00;2.00;;;;;;;;4961511;28;9089;-77
2022/07/11 04:09:59;;;;;;;;;4.00;4.00;;;;;;;;4958803;28;9632;-77
2022/07/11 04:12:26;;;;;;;;;3.00;3.00;;;;;;;;4961222;28;9013;-77
2022/07/11 04:14:55;;;;;;;;;4.00;3.00;;;;;;;;4957428;28;9038;-77
2022/07/11 04:17:22;;;;;;;;;3.33;2.00;;;;;;;;4952444;28;9134;-78
2022/07/11 04:19:50;;;;;;;;;2.00;2.00;;;;;;;;4964416;28;9070;-78
2022/07/11 04:22:17;;;;;;;;;3.00;3.00;;;;;;;;4954181;28;9031;-78
2022/07/11 04:24:45;;;;;;;;;4.00;4.00;;;;;;;;4956701;28;9089;-77
2022/07/11 04:27:12;;;;;;;;;4.67;4.67;;;;;;;;4956658;28;9048;-78
2022/07/11 04:29:40;;;;;;;;;4.00;4.00;;;;;;;;4958179;28;9252;-78
2022/07/11 04:32:09;;;;;;;;;4.00;4.00;;;;;;;;4957353;28;9060;-78
2022/07/11 04:34:36;;;;;;;;;4.00;4.00;;;;;;;;4937765;28;9222;-78
2022/07/11 04:37:04;;;;;;;;;4.00;4.00;;;;;;;;4957600;28;9107;-78
2022/07/11 04:39:32;;;;;;;;;4.33;4.33;;;;;;;;4955794;28;9203;-78
2022/07/11 04:42:00;;;;;;;;;4.00;4.00;;;;;;;;4957936;28;9131;-78
2022/07/11 04:44:28;;;;;;;;;5.67;4.00;;;;;;;;4943903;28;9198;-79
2022/07/11 04:46:55;;;;;;;;;5.33;4.67;;;;;;;;4934916;28;9173;-79
2022/07/11 04:49:24;;;;;;;;;4.00;4.00;;;;;;;;4955359;28;9174;-76
2022/07/11 04:51:51;;;;;;;;;6.00;6.00;;;;;;;;4958648;28;8966;-78
2022/07/11 04:54:19;;;;;;;;;5.33;5.33;;;;;;;;4962047;28;9101;-77
2022/07/11 04:56:46;;;;;;;;;5.00;5.00;;;;;;;;4958373;28;9820;-80
2022/07/11 04:59:13;;;;;;;;;6.00;6.00;;;;;;;;4943683;28;9744;-78
2022/07/11 05:01:41;;;;;;;;;5.00;5.00;;;;;;;;4941644;28;8819;-78
2022/07/11 05:04:09;;;;;;;;;4.50;4.50;;;;;;;;4944164;28;9068;-77
2022/07/11 05:06:38;;;;;;;;;6.00;6.00;;;;;;;;4946465;28;8873;-78
2022/07/11 05:09:07;;;;;;;;;5.00;5.00;;;;;;;;4956206;28;8874;-77
2022/07/11 05:11:35;;;;;;;;;6.00;6.00;;;;;;;;4962978;28;8930;-78
2022/07/11 05:14:02;;;;;;;;;6.00;6.00;;;;;;;;4969240;28;8885;-77
2022/07/11 05:16:30;;;;;;;;;3.00;3.00;;;;;;;;4948998;28;8889;-77
2022/07/11 05:18:58;;;;;;;;;7.00;5.00;;;;;;;;4960534;28;8897;-78
2022/07/11 05:21:25;;;;;;;;;6.00;6.00;;;;;;;;4947236;28;8886;-87
2022/07/11 05:23:53;;;;;;;;;5.75;4.75;;;;;;;;4965673;28;8887;-79
2022/07/11 05:26:21;;;;;;;;;4.00;4.00;;;;;;;;4965486;28;8967;-77
2022/07/11 05:28:48;;;;;;;;;5.50;5.50;;;;;;;;4965152;28;8843;-79
2022/07/11 05:31:16;;;;;;;;;5.00;4.75;;;;;;;;4962663;28;8854;-79
2022/07/11 05:33:43;;;;;;;;;6.00;6.00;;;;;;;;4949316;28;8867;-79
2022/07/11 05:36:10;;;;;;;;;5.00;5.00;;;;;;;;4962602;28;8978;-81
2022/07/11 05:38:37;;;;;;;;;6.00;6.00;;;;;;;;4962445;28;8856;-80
2022/07/11 05:41:07;;;;;;;;;6.00;6.00;;;;;;;;4955598;28;8891;-82
2022/07/11 05:43:34;;;;;;;;;3.50;3.50;;;;;;;;4957265;28;8901;-80
2022/07/11 05:46:06;;;;;;;;;4.00;4.00;;;;;;;;4960831;28;9035;-80
2022/07/11 05:48:33;;;;;;;;;4.50;4.25;;;;;;;;4961373;28;8879;-82
2022/07/11 05:51:00;;;;;;;;;6.00;6.00;;;;;;;;4943616;28;8897;-79
2022/07/11 05:53:28;;;;;;;;;5.00;5.00;;;;;;;;4959528;28;8897;-79
2022/07/11 05:55:55;;;;;;;;;4.00;3.00;;;;;;;;4963299;28;8963;-80
2022/07/11 05:58:24;;;;;;;;;4.50;4.50;;;;;;;;4954688;28;8917;-80
2022/07/11 06:00:52;;;;;;;;;7.50;4.50;;;;;;;;4960172;28;9599;-79
2022/07/11 06:03:19;;;;;;;;;5.50;4.75;;;;;;;;4956170;28;8886;-79
2022/07/11 06:05:48;;;;;;;;;4.75;4.75;;;;;;;;4956221;28;9054;-81
2022/07/11 06:11:02;;;;;;;;;3.50;3.50;;;;;;;;4955522;28;8886;-81
2022/07/11 06:13:30;;;;;;;;;5.25;4.25;;;;;;;;4952033;28;8859;-80
2022/07/11 06:15:58;;;;;;;;;3.75;3.75;;;;;;;;4957025;28;8986;-73
2022/07/11 06:18:25;;;;;;;;;5.25;4.50;;;;;;;;4960452;28;8865;-74
2022/07/11 06:20:53;;;;;;;;;5.25;5.25;;;;;;;;4949869;28;8869;-75
2022/07/11 06:23:20;;;;;;;;;7.50;5.50;;;;;;;;4953989;28;9723;-74
2022/07/11 06:25:47;;;;;;;;;7.25;7.25;;;;;;;;4962644;28;8915;-76
2022/07/11 06:28:14;;;;;;;;;6.00;6.00;;;;;;;;4952704;28;8909;-76
2022/07/11 06:30:43;;;;;;;;;5.75;5.75;;;;;;;;4954454;28;8825;-76
2022/07/11 06:33:11;;;;;;;;;5.33;5.33;;;;;;;;4956470;28;8934;-74
2022/07/11 06:35:38;;;;;;;;;5.00;5.00;;;;;;;;4961943;28;8956;-78
2022/07/11 06:38:05;;;;;;;;;4.00;4.00;;;;;;;;4962493;28;8867;-77
2022/07/11 06:40:33;;;;;;;;;5.00;5.00;;;;;;;;4954659;28;8912;-79
2022/07/11 06:43:00;;;;;;;;;7.25;3.75;;;;;;;;4959261;28;8891;-77
2022/07/11 06:45:27;;;;;;;;;5.00;5.00;;;;;;;;4956045;28;8879;-76
2022/07/11 06:47:56;;;;;;;;;7.50;7.00;;;;;;;;4956039;28;8883;-75
2022/07/11 06:50:24;;;;;;;;;5.00;5.00;;;;;;;;4955801;28;8909;-75
2022/07/11 06:52:51;;;;;;;;;6.00;4.50;;;;;;;;4938685;28;8900;-75
2022/07/11 06:55:18;;;;;;;;;4.00;4.00;;;;;;;;4961774;28;8900;-76
2022/07/11 06:57:46;;;;;;;;;4.50;4.50;;;;;;;;4958675;28;8866;-74
2022/07/11 07:00:13;;;;;;;;;4.00;4.00;;;;;;;;4957418;28;8871;-75
2022/07/11 07:02:40;;;;;;;;;4.00;4.00;;;;;;;;4954149;28;8867;-75
2022/07/11 07:05:10;;;;;;;;;5.60;4.00;;;;;;;;4954921;28;8879;-75
2022/07/11 07:07:37;;;;;;;;;5.00;5.00;;;;;;;;4963618;28;8884;-75
2022/07/11 07:10:05;;;;;;;;;4.60;4.60;;;;;;;;4957662;28;8885;-76
2022/07/11 07:12:32;;;;;;;;;6.20;5.20;;;;;;;;4951469;28;8865;-76
2022/07/11 07:15:01;;;;;;;;;5.00;5.00;;;;;;;;4955207;28;8891;-79
2022/07/11 07:17:30;;;;;;;;;7.80;5.00;;;;;;;;4957989;28;9678;-82
2022/07/11 07:19:57;;;;;;;;;4.80;4.80;;;;;;;;4944727;28;8889;-80
2022/07/11 07:22:26;;;;;;;;;3.40;3.40;;;;;;;;4956436;28;8879;-78
2022/07/11 07:24:54;;;;;;;;;6.60;5.00;;;;;;;;4954135;28;8893;-81
2022/07/11 07:27:21;;;;;;;;;2.00;2.00;;;;;;;;4954307;28;9641;-82
2022/07/11 07:29:48;;;;;;;;;4.40;4.20;;;;;;;;4955257;28;8867;-79
2022/07/11 07:32:16;;;;;;;;;3.20;3.20;;;;;;;;4956312;28;8819;-81
2022/07/11 07:34:43;;;;;;;;;5.20;5.20;;;;;;;;4936304;28;8875;-81
2022/07/11 07:37:10;;;;;;;;;3.80;3.80;;;;;;;;4957331;28;8917;-83
2022/07/11 07:39:39;;;;;;;;;4.40;4.40;;;;;;;;4941981;28;8929;-84
2022/07/11 07:42:07;;;;;;;;;4.00;4.00;;;;;;;;4955025;28;8870;-85
2022/07/11 07:44:34;;;;;;;;;3.40;3.00;;;;;;;;4954986;28;8889;-80
2022/07/11 07:47:02;;;;;;;;;4.00;4.00;;;;;;;;4947079;28;8889;-81
2022/07/11 07:49:29;;;;;;;;;3.00;3.00;;;;;;;;4954873;28;8895;-78
2022/07/11 07:51:56;;;;;;;;;3.00;3.00;;;;;;;;4956139;28;8874;-80
2022/07/11 07:54:25;;;;;;;;;3.40;3.40;;;;;;;;4958342;28;8893;-78
2022/07/11 07:56:53;;;;;;;;;3.80;3.80;;;;;;;;4958315;28;8994;-83
2022/07/11 07:59:24;;;;;;;;;4.00;4.00;;;;;;;;4941543;28;8876;-81
2022/07/11 08:01:50;;;;;;;;;4.80;3.00;;;;;;;;4937741;28;8836;-86
2022/07/11 08:04:18;;;;;;;;;3.00;3.00;;;;;;;;4947974;28;8896;-84
2022/07/11 08:06:45;;;;;;;;;2.40;2.40;;;;;;;;4937522;28;8879;-84
2022/07/11 08:09:13;;;;;;;;;4.20;3.00;;;;;;;;4939346;28;8917;-82
2022/07/11 08:11:40;;;;;;;;;4.20;4.20;;;;;;;;4959093;28;8887;-84
2022/07/11 08:14:09;;;;;;;;;3.00;2.60;;;;;;;;4958724;28;8867;-82
2022/07/11 08:16:38;;;;;;;;;2.20;2.20;;;;;;;;4951886;28;8875;-84
2022/07/11 08:19:06;;;;;;;;;3.00;3.00;;;;;;;;4957740;28;8972;-84
2022/07/11 08:21:34;;;;;;;;;2.40;2.40;;;;;;;;4952612;28;8893;-84
2022/07/11 08:24:02;;;;;;;;;2.60;2.60;;;;;;;;4958827;28;8943;-83
2022/07/11 08:26:30;;;;;;;;;2.80;2.80;;;;;;;;4954105;28;8895;-84
2022/07/11 08:28:57;;;;;;;;;1.60;1.60;;;;;;;;4949975;28;8881;-85
2022/07/11 08:31:26;;;;;;;;;3.00;3.00;;;;;;;;4939364;28;8918;-83
2022/07/11 08:33:54;;;;;;;;;2.00;2.00;;;;;;;;4958243;28;9054;-84
2022/07/11 08:36:21;;;;;;;;;1.00;1.00;;;;;;;;4958232;28;8899;-84
2022/07/11 08:38:48;;;;;;;;;0.60;0.60;;;;;;;;4937474;28;8879;-85
2022/07/11 08:41:18;;;;;;;;;2.00;2.00;;;;;;;;4957589;28;9073;-86
2022/07/11 08:43:46;;;;;;;;;2.00;2.00;;;;;;;;4960386;28;8867;-85
2022/07/11 08:46:14;;;;;;;;;2.40;2.40;;;;;;;;4961375;28;8982;-87
2022/07/11 08:48:44;;;;;;;;;3.60;1.80;;;;;;;;4957668;28;9051;-85
2022/07/11 08:51:12;;;;;;;;;3.00;3.00;;;;;;;;4957314;28;8889;-85
2022/07/11 08:53:44;;;;;;;;;1.60;1.60;;;;;;;;4957912;28;8899;-84
2022/07/11 08:56:15;;;;;;;;;1.80;1.80;;;;;;;;4958422;28;9019;-87
2022/07/11 08:58:47;;;;;;;;;1.00;1.00;;;;;;;;4958202;28;8888;-87
2022/07/11 09:01:17;;;;;;;;;2.80;2.80;;;;;;;;4960780;28;8854;-87
2022/07/11 09:03:46;;;;;;;;;2.00;2.00;;;;;;;;4957118;28;8883;-81
2022/07/11 09:06:14;;;;;;;;;2.20;2.20;;;;;;;;4957638;28;8916;-85
2022/07/11 09:08:41;;;;;;;;;5.60;2.80;;;;;;;;4961268;28;8921;-88
2022/07/11 09:11:09;;;;;;;;;2.80;2.80;;;;;;;;4959396;28;8971;-87
2022/07/11 09:13:36;;;;;;;;;1.80;1.80;;;;;;;;4956592;28;8877;-88
2022/07/11 09:16:06;;;;;;;;;3.00;3.00;;;;;;;;4960420;28;8883;-84
2022/07/11 09:18:35;;;;;;;;;1.40;1.40;;;;;;;;4959954;28;8865;-89
2022/07/11 09:26:38;;;;;;;;;2.80;2.80;;;;;;;;4956990;28;8871;-85
2022/07/11 09:29:10;;;;;;;;;2.80;2.80;;;;;;;;4958793;28;9660;-85
2022/07/11 09:31:39;;;;;;;;;3.60;2.00;;;;;;;;4958148;28;8831;-82
2022/07/11 09:34:09;;;;;;;;;1.20;1.20;;;;;;;;4962045;28;8864;-87
2022/07/11 09:36:43;;;;;;;;;1.20;1.20;;;;;;;;4953649;28;8873;-86
2022/07/11 09:39:12;;;;;;;;;2.00;2.00;;;;;;;;4959038;28;8882;-84
2022/07/11 09:41:40;;;;;;;;;2.00;2.00;;;;;;;;4966510;28;8887;-85
2022/07/11 09:44:10;;;;;;;;;1.40;1.40;;;;;;;;4964326;28;8907;-84
2022/07/11 09:46:38;;;;;;;;;1.00;1.00;;;;;;;;4965255;28;8876;-82
2022/07/11 09:49:06;;;;;;;;;1.00;1.00;;;;;;;;4962144;28;8869;-84
2022/07/11 09:51:34;;;;;;;;;2.80;2.80;;;;;;;;4970455;28;8899;-83
2022/07/11 09:54:09;;;;;;;;;1.80;1.80;;;;;;;;4962121;28;8919;-78
2022/07/11 09:56:41;;;;;;;;;3.80;3.80;;;;;;;;4964239;28;9014;-82
2022/07/11 09:59:10;;;;;;;;;0.80;0.80;;;;;;;;4970015;28;8887;-81
2022/07/11 10:01:39;;;;;;;;;2.40;2.40;;;;;;;;4950201;28;8841;-79
2022/07/11 10:04:08;;;;;;;;;0.00;0.00;;;;;;;;4961375;28;8867;-80
2022/07/11 10:06:36;;;;;;;;;1.00;1.00;;;;;;;;4961797;28;9632;-83
2022/07/11 10:09:07;;;;;;;;;0.00;0.00;;;;;;;;4958827;28;8899;-82
2022/07/11 10:11:36;;;;;;;;;0.00;0.00;;;;;;;;4960170;28;8909;-82
2022/07/11 10:14:07;;;;;;;;;0.80;0.80;;;;;;;;4944365;28;8876;-80
2022/07/11 10:16:46;;;;;;;;;1.00;1.00;;;;;;;;4966091;28;8879;-77
2022/07/11 10:19:24;;;;;;;;;0.00;0.00;;;;;;;;4957597;28;9827;-79
2022/07/11 10:22:02;;;;;;;;;1.00;1.00;;;;;;;;4960683;28;8919;-80
2022/07/11 10:24:38;;;;;;;;;0.00;0.00;;;;;;;;4958730;28;8893;-80
2022/07/11 10:27:11;;;;;;;;;0.00;0.00;;;;;;;;4938869;28;8887;-80
2022/07/11 10:29:43;;;;;;;;;1.80;1.80;;;;;;;;4940620;28;8881;-80
2022/07/11 10:32:11;;;;;;;;;0.20;0.20;;;;;;;;4955496;28;8835;-80
2022/07/11 10:34:39;;;;;;;;;0.00;0.00;;;;;;;;4953796;28;8869;-80
2022/07/11 10:37:08;;;;;;;;;1.00;1.00;;;;;;;;4957321;28;8879;-82
2022/07/11 10:39:38;;;;;;;;;0.40;0.40;;;;;;;;4956754;28;8909;-78
2022/07/11 10:42:08;;;;;;;;;0.00;0.00;;;;;;;;4954278;28;8895;-82
2022/07/11 10:44:52;;;;;;;;;0.40;0.40;;;;;;;;4953713;28;8863;-84
2022/07/11 10:47:36;;;;;;;;;0.60;0.60;;;;;;;;4956945;28;8887;-83
2022/07/11 10:50:10;;;;;;;;;0.00;0.00;;;;;;;;4955862;28;8911;-84
2022/07/11 10:52:39;;;;;;;;;0.00;0.00;;;;;;;;4961324;28;8895;-84
2022/07/11 10:55:21;;;;;;;;;0.00;0.00;;;;;;;;4957342;28;9873;-78
2022/07/11 10:57:59;;;;;;;;;0.80;0.00;;;;;;;;4955800;28;8902;-80
2022/07/11 11:00:26;;;;;;;;;0.00;0.00;;;;;;;;4954091;28;8797;-78
2022/07/11 11:03:05;;;;;;;;;0.20;0.00;;;;;;;;4935337;28;8916;-79
2022/07/11 11:05:49;;;;;;;;;0.00;0.00;;;;;;;;4940642;28;8863;-79
2022/07/11 11:08:46;;;;;;;;;0.00;0.00;;;;;;;;4941131;28;8841;-80
2022/07/11 11:11:38;;;;;;;;;0.00;0.00;;;;;;;;4955099;28;8903;-79
2022/07/11 11:14:26;;;;;;;;;0.60;0.60;;;;;;;;4955324;28;8910;-81
2022/07/11 11:16:54;;;;;;;;;0.00;0.00;;;;;;;;4958839;28;8881;-79
2022/07/11 11:19:53;;;;;;;;;1.00;1.00;;;;;;;;4962889;28;8889;-80
2022/07/11 11:22:22;;;;;;;;;0.20;0.20;;;;;;;;4955705;28;9008;-78
2022/07/11 11:24:52;;;;;;;;;0.00;0.00;;;;;;;;4956347;28;9644;-80
2022/07/11 11:27:24;;;;;;;;;0.00;0.00;;;;;;;;4957701;28;8882;-79
2022/07/11 11:29:53;;;;;;;;;0.00;0.00;;;;;;;;4954275;28;8896;-79
2022/07/11 11:32:22;;;;;;;;;0.60;0.60;;;;;;;;4954553;28;8835;-79
2022/07/11 11:34:50;;;;;;;;;0.00;0.00;;;;;;;;4941343;28;8944;-79
2022/07/11 11:37:19;;;;;;;;;0.00;0.00;;;;;;;;4952548;28;9508;-79
2022/07/11 11:39:49;;;;;;;;;0.00;0.00;;;;;;;;4961751;28;8902;-78
2022/07/11 11:42:18;;;;;;;;;0.00;0.00;;;;;;;;4954520;28;8879;-79
2022/07/11 11:44:59;;;;;;;;;2.00;0.00;;;;;;;;4936208;28;8916;-81
2022/07/11 11:47:29;;;;;;;;;1.20;0.60;;;;;;;;4951457;28;8883;-78
2022/07/11 11:49:57;;;;;;;;;0.40;0.40;;;;;;;;4954264;28;8915;-78
2022/07/11 11:52:25;;;;;;;;;0.00;0.00;;;;;;;;4946631;28;8897;-77
2022/07/11 11:54:57;;;;;;;;;0.00;0.00;;;;;;;;4952631;28;8882;-80
2022/07/11 11:57:26;;;;;;;;;1.00;1.00;;;;;;;;4938745;28;8994;-82
2022/07/11 11:59:56;;;;;;;;;0.80;0.80;;;;;;;;4959670;28;8873;-78
2022/07/11 12:02:28;;;;;;;;;0.00;0.00;;;;;;;;4945202;28;9464;-80
2022/07/11 12:04:56;;;;;;;;;0.00;0.00;;;;;;;;4958254;28;9715;-78
2022/07/11 12:07:27;;;;;;;;;0.00;0.00;;;;;;;;4964296;28;8875;-82
2022/07/11 12:09:56;;;;;;;;;0.20;0.20;;;;;;;;4964362;28;8877;-78
2022/07/11 12:12:45;;;;;;;;;2.00;0.00;;;;;;;;4964165;28;9010;-81
2022/07/11 12:15:34;;;;;;;;;0.00;0.00;;;;;;;;4959888;28;8851;-79
2022/07/11 12:18:04;;;;;;;;;0.20;0.20;;;;;;;;4961060;28;8848;-78
2022/07/11 12:20:41;;;;;;;;;0.00;0.00;;;;;;;;4961701;28;9030;-81
2022/07/11 12:23:10;;;;;;;;;0.40;0.40;;;;;;;;4941384;28;8878;-78
2022/07/11 12:25:38;;;;;;;;;0.00;0.00;;;;;;;;4965754;28;8893;-80
2022/07/11 12:28:07;;;;;;;;;0.00;0.00;;;;;;;;4963046;28;8871;-80
2022/07/11 12:30:37;;;;;;;;;0.00;0.00;;;;;;;;4958985;28;8870;-77
2022/07/11 12:33:09;;;;;;;;;0.00;0.00;;;;;;;;4964224;28;8983;-77
2022/07/11 12:35:37;;;;;;;;;0.00;0.00;;;;;;;;4967513;28;8840;-77
2022/07/11 12:38:05;;;;;;;;;0.60;0.60;;;;;;;;4950030;28;8891;-77
2022/07/11 12:40:32;;;;;;;;;0.00;0.00;;;;;;;;4955486;28;8883;-77
2022/07/11 12:42:59;;;;;;;;;0.00;0.00;;;;;;;;4959806;28;8887;-76
2022/07/11 12:45:26;;;;;;;;;1.00;0.00;;;;;;;;4963260;28;8893;-77
2022/07/11 12:47:55;;;;;;;;;0.00;0.00;;;;;;;;4959986;28;8963;-76
2022/07/11 12:50:24;;;;;;;;;0.00;0.00;;;;;;;;4960196;28;9012;-76
2022/07/11 12:52:54;;;;;;;;;0.00;0.00;;;;;;;;4962204;28;8876;-76
2022/07/11 12:55:23;;;;;;;;;0.00;0.00;;;;;;;;4949822;28;8874;-76
2022/07/11 12:58:07;;;;;;;;;0.00;0.00;;;;;;;;4961851;28;9037;-76
2022/07/11 13:00:36;;;;;;;;;0.00;0.00;;;;;;;;4958170;28;8819;-77
2022/07/11 13:03:05;;;;;;;;;0.00;0.00;;;;;;;;4960773;28;8891;-77
2022/07/11 13:05:52;;;;;;;;;0.00;0.00;;;;;;;;4962392;28;8850;-77
2022/07/11 13:11:12;;;;;;;;;0.00;0.00;;;;;;;;4964262;28;8860;-79
2022/07/11 13:13:40;;;;;;;;;0.00;0.00;;;;;;;;4963232;28;8863;-77
2022/07/11 13:16:08;;;;;;;;;0.00;0.00;;;;;;;;4966049;28;8894;-77
2022/07/11 13:18:38;;;;;;;;;0.00;0.00;;;;;;;;4961637;28;8891;-76
2022/07/11 13:21:06;;;;;;;;;0.00;0.00;;;;;;;;4958719;28;8875;-76
2022/07/11 13:23:35;;;;;;;;;0.00;0.00;;;;;;;;4958767;28;9635;-78
2022/07/11 13:26:03;;;;;;;;;0.00;0.00;;;;;;;;4958074;28;8953;-78
2022/07/11 13:28:31;;;;;;;;;1.00;0.00;;;;;;;;4955728;28;8926;-77
2022/07/11 13:30:58;;;;;;;;;0.00;0.00;;;;;;;;4951836;28;8942;-79
2022/07/11 13:33:25;;;;;;;;;0.00;0.00;;;;;;;;4956611;28;8877;-77
2022/07/11 13:35:55;;;;;;;;;0.00;0.00;;;;;;;;4954158;28;8918;-77
2022/07/11 13:38:23;;;;;;;;;0.00;0.00;;;;;;;;4961814;28;8903;-80
2022/07/11 13:40:53;;;;;;;;;0.00;0.00;;;;;;;;4954251;28;8894;-78
2022/07/11 13:43:24;;;;;;;;;0.00;0.00;;;;;;;;4934385;28;8863;-80
2022/07/11 13:45:52;;;;;;;;;0.00;0.00;;;;;;;;4956893;28;8983;-78
2022/07/11 13:48:19;;;;;;;;;0.00;0.00;;;;;;;;4959603;28;8910;-80
2022/07/11 13:50:46;;;;;;;;;0.00;0.00;;;;;;;;4957125;28;9614;-80
2022/07/11 13:53:15;;;;;;;;;0.00;0.00;;;;;;;;4955643;28;8879;-82
2022/07/11 13:55:43;;;;;;;;;0.00;0.00;;;;;;;;4960170;28;9009;-79
2022/07/11 13:58:24;;;;;;;;;0.00;0.00;;;;;;;;4960918;28;9661;-79
2022/07/11 14:00:52;;;;;;;;;0.00;0.00;;;;;;;;4940441;28;8855;-80
2022/07/11 14:03:20;;;;;;;;;0.00;0.00;;;;;;;;4955814;28;8883;-80
2022/07/11 14:05:48;;;;;;;;;0.00;0.00;;;;;;;;4963049;28;8879;-78
2022/07/11 14:08:16;;;;;;;;;0.00;0.00;;;;;;;;4960679;28;9018;-78
2022/07/11 14:10:45;;;;;;;;;0.00;0.00;;;;;;;;4955075;28;8884;-80
2022/07/11 14:13:12;;;;;;;;;1.00;0.00;;;;;;;;4954036;28;8980;-77
2022/07/11 14:15:41;;;;;;;;;0.00;0.00;;;;;;;;4942687;28;9641;-77
2022/07/11 14:18:08;;;;;;;;;0.00;0.00;;;;;;;;4958355;28;9329;-78
2022/07/11 14:20:36;;;;;;;;;0.00;0.00;;;;;;;;4940343;28;8954;-77
2022/07/11 14:23:03;;;;;;;;;0.00;0.00;;;;;;;;4953720;28;8883;-80
2022/07/11 14:25:32;;;;;;;;;0.00;0.00;;;;;;;;4954173;28;8881;-79
2022/07/11 14:28:00;;;;;;;;;0.00;0.00;;;;;;;;4953273;28;8917;-79
2022/07/11 14:30:27;;;;;;;;;1.00;0.00;;;;;;;;4959262;28;8875;-76
2022/07/11 14:32:57;;;;;;;;;0.00;0.00;;;;;;;;4959994;28;8917;-83
2022/07/11 14:35:25;;;;;;;;;0.00;0.00;;;;;;;;4957522;28;8871;-80
2022/07/11 14:37:52;;;;;;;;;0.00;0.00;;;;;;;;4956502;28;8879;-79
2022/07/11 14:40:23;;;;;;;;;0.00;0.00;;;;;;;;4951793;28;8914;-80
2022/07/11 14:43:02;;;;;;;;;0.00;0.00;;;;;;;;4953879;28;8883;-79
2022/07/11 14:45:29;;;;;;;;;0.00;0.00;;;;;;;;4954917;28;8899;-80
2022/07/11 14:47:56;;;;;;;;;0.00;0.00;;;;;;;;4953785;28;8968;-78
2022/07/11 14:50:25;;;;;;;;;0.00;0.00;;;;;;;;4962697;28;8988;-79
2022/07/11 14:52:52;;;;;;;;;0.00;0.00;;;;;;;;4949776;28;8910;-78
2022/07/11 14:55:22;;;;;;;;;0.00;0.00;;;;;;;;4959228;28;8986;-78
2022/07/11 14:57:53;;;;;;;;;0.00;0.00;;;;;;;;4959522;28;8852;-78
2022/07/11 15:00:22;;;;;;;;;0.00;0.00;;;;;;;;4961411;28;8905;-78
2022/07/11 15:05:37;;;;;;;;;0.00;0.00;;;;;;;;4952704;28;8875;-78
2022/07/11 15:13:38;;;;;;;;;0.00;0.00;;;;;;;;4959505;28;8869;-89
2022/07/11 15:16:06;;;;;;;;;0.00;0.00;;;;;;;;4955550;28;8885;-81
2022/07/11 15:18:34;;;;;;;;;0.00;0.00;;;;;;;;4958656;28;8901;-81
2022/07/11 15:21:01;;;;;;;;;0.00;0.00;;;;;;;;4960186;28;8889;-79
2022/07/11 15:23:28;;;;;;;;;0.00;0.00;;;;;;;;4956859;28;8877;-79
2022/07/11 15:25:55;;;;;;;;;0.00;0.00;;;;;;;;4961750;28;9030;-79
2022/07/11 15:28:23;;;;;;;;;0.00;0.00;;;;;;;;4959969;28;8913;-78
2022/07/11 15:30:52;;;;;;;;;0.00;0.00;;;;;;;;4958234;28;8847;-78